sensor_id;sensor_type;location;lat;lon;timestamp;pressure;altitude;pressure_sealevel;temperature;humidity
10135;BME280;5107;48.850;8.924;2023-05-16T00:00:12;96500.06;;;12.54;85.60
10135;BME280;5107;48.850;8.924;2023-05-16T00:02:38;96497.19;;;12.55;85.71
10135;BME280;5107;48.850;8.924;2023-05-16T00:05:04;96492.50;;;12.51;85.59
10135;BME280;5107;48.850;8.924;2023-05-16T00:07:32;96494.69;;;12.47;85.64
10135;BME280;5107;48.850;8.924;2023-05-16T00:09:58;96494.25;;;12.44;85.82
10135;BME280;5107;48.850;8.924;2023-05-16T00:12:23;96490.53;;;12.38;86.39
10135;BME280;5107;48.850;8.924;2023-05-16T00:14:49;96491.72;;;12.36;86.79
10135;BME280;5107;48.850;8.924;2023-05-16T00:17:15;96493.84;;;12.26;86.55
10135;BME280;5107;48.850;8.924;2023-05-16T00:19:43;96493.38;;;12.22;87.15
10135;BME280;5107;48.850;8.924;2023-05-16T00:22:11;96487.84;;;12.17;87.72
10135;BME280;5107;48.850;8.924;2023-05-16T00:24:37;96487.59;;;12.12;88.21
10135;BME280;5107;48.850;8.924;2023-05-16T00:27:03;96481.69;;;12.10;88.23
10135;BME280;5107;48.850;8.924;2023-05-16T00:29:30;96488.53;;;12.04;88.51
10135;BME280;5107;48.850;8.924;2023-05-16T00:31:55;96472.88;;;12.03;88.60
10135;BME280;5107;48.850;8.924;2023-05-16T00:34:21;96477.53;;;12.01;88.79
10135;BME280;5107;48.850;8.924;2023-05-16T00:36:48;96486.78;;;11.97;88.91
10135;BME280;5107;48.850;8.924;2023-05-16T00:39:14;96485.34;;;11.94;88.51
10135;BME280;5107;48.850;8.924;2023-05-16T00:41:40;96480.81;;;11.88;89.03
10135;BME280;5107;48.850;8.924;2023-05-16T00:44:05;96476.44;;;11.81;89.26
10135;BME280;5107;48.850;8.924;2023-05-16T00:46:31;96475.63;;;11.80;89.55
10135;BME280;5107;48.850;8.924;2023-05-16T00:48:56;96477.66;;;11.78;89.55
10135;BME280;5107;48.850;8.924;2023-05-16T00:51:22;96473.69;;;11.74;89.49
10135;BME280;5107;48.850;8.924;2023-05-16T00:53:48;96476.25;;;11.67;89.93
10135;BME280;5107;48.850;8.924;2023-05-16T00:56:13;96480.06;;;11.65;90.09
10135;BME280;5107;48.850;8.924;2023-05-16T00:58:38;96491.16;;;11.60;90.18
10135;BME280;5107;48.850;8.924;2023-05-16T01:01:04;96490.16;;;11.61;90.69
10135;BME280;5107;48.850;8.924;2023-05-16T01:03:30;96498.06;;;11.61;90.46
10135;BME280;5107;48.850;8.924;2023-05-16T01:05:56;96491.97;;;11.61;90.10
10135;BME280;5107;48.850;8.924;2023-05-16T01:08:22;96488.69;;;11.59;90.26
10135;BME280;5107;48.850;8.924;2023-05-16T01:11:03;96487.31;;;11.48;90.54
10135;BME280;5107;48.850;8.924;2023-05-16T01:16:47;96491.50;;;11.43;90.70
10135;BME280;5107;48.850;8.924;2023-05-16T01:22:05;96486.31;;;11.34;90.36
10135;BME280;5107;48.850;8.924;2023-05-16T01:25:00;96494.38;;;11.33;90.75
10135;BME280;5107;48.850;8.924;2023-05-16T01:27:26;96485.84;;;11.31;90.93
10135;BME280;5107;48.850;8.924;2023-05-16T01:29:56;96492.47;;;11.27;91.04
10135;BME280;5107;48.850;8.924;2023-05-16T01:32:22;96489.47;;;11.30;91.39
10135;BME280;5107;48.850;8.924;2023-05-16T01:34:49;96490.75;;;11.34;91.44
10135;BME280;5107;48.850;8.924;2023-05-16T01:37:47;96490.94;;;11.32;91.19
10135;BME280;5107;48.850;8.924;2023-05-16T01:40:13;96491.13;;;11.31;90.86
10135;BME280;5107;48.850;8.924;2023-05-16T01:42:44;96489.59;;;11.36;91.10
10135;BME280;5107;48.850;8.924;2023-05-16T01:45:22;96492.41;;;11.35;90.84
10135;BME280;5107;48.850;8.924;2023-05-16T01:48:06;96493.03;;;11.37;91.25
10135;BME280;5107;48.850;8.924;2023-05-16T01:50:35;96492.06;;;11.38;90.67
10135;BME280;5107;48.850;8.924;2023-05-16T01:53:07;96495.31;;;11.40;90.53
10135;BME280;5107;48.850;8.924;2023-05-16T01:55:44;96486.31;;;11.34;90.41
10135;BME280;5107;48.850;8.924;2023-05-16T01:58:11;96493.41;;;11.34;90.98
10135;BME280;5107;48.850;8.924;2023-05-16T02:00:39;96493.13;;;11.29;91.26
10135;BME280;5107;48.850;8.924;2023-05-16T02:03:04;96497.75;;;11.27;91.24
10135;BME280;5107;48.850;8.924;2023-05-16T02:05:30;96489.09;;;11.18;91.41
10135;BME280;5107;48.850;8.924;2023-05-16T02:07:56;96496.84;;;11.20;91.80
10135;BME280;5107;48.850;8.924;2023-05-16T02:10:21;96495.84;;;11.21;91.80
10135;BME280;5107;48.850;8.924;2023-05-16T02:12:49;96503.75;;;11.21;91.90
10135;BME280;5107;48.850;8.924;2023-05-16T02:15:14;96505.56;;;11.20;92.24
10135;BME280;5107;48.850;8.924;2023-05-16T02:17:39;96502.91;;;11.20;92.19
10135;BME280;5107;48.850;8.924;2023-05-16T02:20:06;96505.66;;;11.27;92.39
10135;BME280;5107;48.850;8.924;2023-05-16T02:22:34;96505.28;;;11.30;92.12
10135;BME280;5107;48.850;8.924;2023-05-16T02:25:01;96505.09;;;11.31;92.11
10135;BME280;5107;48.850;8.924;2023-05-16T02:27:27;96504.94;;;11.33;92.12
10135;BME280;5107;48.850;8.924;2023-05-16T02:29:53;96507.56;;;11.33;92.32
10135;BME280;5107;48.850;8.924;2023-05-16T02:32:18;96506.22;;;11.37;91.88
10135;BME280;5107;48.850;8.924;2023-05-16T02:34:43;96506.22;;;11.37;92.01
10135;BME280;5107;48.850;8.924;2023-05-16T02:37:09;96502.22;;;11.41;92.18
10135;BME280;5107;48.850;8.924;2023-05-16T02:39:34;96510.75;;;11.43;91.87
10135;BME280;5107;48.850;8.924;2023-05-16T02:41:59;96508.31;;;11.41;92.15
10135;BME280;5107;48.850;8.924;2023-05-16T02:44:24;96512.41;;;11.44;92.25
10135;BME280;5107;48.850;8.924;2023-05-16T02:46:50;96510.94;;;11.41;92.05
10135;BME280;5107;48.850;8.924;2023-05-16T02:49:15;96501.41;;;11.40;92.37
10135;BME280;5107;48.850;8.924;2023-05-16T02:51:41;96503.84;;;11.42;92.64
10135;BME280;5107;48.850;8.924;2023-05-16T02:54:06;96504.84;;;11.41;92.52
10135;BME280;5107;48.850;8.924;2023-05-16T02:56:34;96508.94;;;11.44;92.96
10135;BME280;5107;48.850;8.924;2023-05-16T02:59:00;96503.84;;;11.42;92.83
10135;BME280;5107;48.850;8.924;2023-05-16T03:01:25;96502.22;;;11.41;92.95
10135;BME280;5107;48.850;8.924;2023-05-16T03:03:50;96507.66;;;11.39;92.94
10135;BME280;5107;48.850;8.924;2023-05-16T03:06:16;96509.13;;;11.42;93.53
10135;BME280;5107;48.850;8.924;2023-05-16T03:08:41;96511.75;;;11.42;93.05
10135;BME280;5107;48.850;8.924;2023-05-16T03:11:06;96507.03;;;11.37;93.49
10135;BME280;5107;48.850;8.924;2023-05-16T03:13:32;96507.22;;;11.36;93.43
10135;BME280;5107;48.850;8.924;2023-05-16T03:15:57;96511.50;;;11.37;93.85
10135;BME280;5107;48.850;8.924;2023-05-16T03:18:22;96512.47;;;11.36;93.86
10135;BME280;5107;48.850;8.924;2023-05-16T03:20:48;96513.91;;;11.38;93.92
10135;BME280;5107;48.850;8.924;2023-05-16T03:23:13;96511.09;;;11.40;93.75
10135;BME280;5107;48.850;8.924;2023-05-16T03:25:38;96520.09;;;11.31;94.34
10135;BME280;5107;48.850;8.924;2023-05-16T03:28:05;96516.38;;;11.25;94.82
10135;BME280;5107;48.850;8.924;2023-05-16T03:30:32;96522.19;;;11.21;95.23
10135;BME280;5107;48.850;8.924;2023-05-16T03:32:57;96518.53;;;11.22;95.14
10135;BME280;5107;48.850;8.924;2023-05-16T03:35:22;96511.00;;;11.19;95.49
10135;BME280;5107;48.850;8.924;2023-05-16T03:37:48;96514.06;;;11.22;95.61
10135;BME280;5107;48.850;8.924;2023-05-16T03:40:14;96520.53;;;11.20;95.55
10135;BME280;5107;48.850;8.924;2023-05-16T03:42:39;96517.91;;;11.20;95.50
10135;BME280;5107;48.850;8.924;2023-05-16T03:45:05;96514.78;;;11.16;95.92
10135;BME280;5107;48.850;8.924;2023-05-16T03:47:31;96514.97;;;11.15;95.82
10135;BME280;5107;48.850;8.924;2023-05-16T03:49:56;96522.44;;;11.26;95.85
10135;BME280;5107;48.850;8.924;2023-05-16T03:52:22;96506.00;;;11.24;95.87
10135;BME280;5107;48.850;8.924;2023-05-16T03:54:47;96513.63;;;11.19;95.91
10135;BME280;5107;48.850;8.924;2023-05-16T03:57:12;96519.53;;;11.21;95.85
10135;BME280;5107;48.850;8.924;2023-05-16T03:59:38;96519.72;;;11.19;96.10
10135;BME280;5107;48.850;8.924;2023-05-16T04:02:05;96517.53;;;11.23;95.98
10135;BME280;5107;48.850;8.924;2023-05-16T04:04:30;96520.53;;;11.20;95.95
10135;BME280;5107;48.850;8.924;2023-05-16T04:06:56;96518.25;;;11.17;96.33
10135;BME280;5107;48.850;8.924;2023-05-16T04:09:21;96522.78;;;11.23;96.16
10135;BME280;5107;48.850;8.924;2023-05-16T04:11:46;96525.09;;;11.26;95.77
10135;BME280;5107;48.850;8.924;2023-05-16T04:14:12;96528.06;;;11.23;96.08
10135;BME280;5107;48.850;8.924;2023-05-16T04:16:37;96526.63;;;11.20;95.97
10135;BME280;5107;48.850;8.924;2023-05-16T04:19:03;96524.50;;;11.16;95.98
10135;BME280;5107;48.850;8.924;2023-05-16T04:21:28;96517.59;;;11.15;96.35
10135;BME280;5107;48.850;8.924;2023-05-16T04:23:53;96524.06;;;11.12;96.38
10135;BME280;5107;48.850;8.924;2023-05-16T04:26:19;96534.69;;;11.19;96.42
10135;BME280;5107;48.850;8.924;2023-05-16T04:28:46;96526.31;;;11.15;96.47
10135;BME280;5107;48.850;8.924;2023-05-16T04:31:12;96520.53;;;11.20;96.76
10135;BME280;5107;48.850;8.924;2023-05-16T04:33:38;96520.06;;;11.16;96.24
10135;BME280;5107;48.850;8.924;2023-05-16T04:36:04;96519.63;;;11.13;96.24
10135;BME280;5107;48.850;8.924;2023-05-16T04:38:30;96523.69;;;11.15;96.55
10135;BME280;5107;48.850;8.924;2023-05-16T04:40:56;96532.72;;;11.21;96.60
10135;BME280;5107;48.850;8.924;2023-05-16T04:43:21;96536.34;;;11.20;96.30
10135;BME280;5107;48.850;8.924;2023-05-16T04:45:47;96540.88;;;11.26;96.42
10135;BME280;5107;48.850;8.924;2023-05-16T04:48:12;96538.09;;;11.27;96.19
10135;BME280;5107;48.850;8.924;2023-05-16T04:50:38;96535.44;;;11.27;96.27
10135;BME280;5107;48.850;8.924;2023-05-16T04:53:03;96540.63;;;11.35;96.28
10135;BME280;5107;48.850;8.924;2023-05-16T04:55:28;96542.16;;;11.30;96.08
10135;BME280;5107;48.850;8.924;2023-05-16T04:57:54;96550.69;;;11.32;95.74
10135;BME280;5107;48.850;8.924;2023-05-16T05:00:19;96550.28;;;11.43;96.09
10135;BME280;5107;48.850;8.924;2023-05-16T05:02:45;96549.22;;;11.52;95.43
10135;BME280;5107;48.850;8.924;2023-05-16T05:05:10;96555.41;;;11.59;95.24
10135;BME280;5107;48.850;8.924;2023-05-16T05:07:36;96550.78;;;11.61;94.82
10135;BME280;5107;48.850;8.924;2023-05-16T05:10:01;96560.75;;;11.51;94.88
10135;BME280;5107;48.850;8.924;2023-05-16T05:12:27;96566.91;;;11.44;94.85
10135;BME280;5107;48.850;8.924;2023-05-16T05:14:52;96570.63;;;11.49;95.47
10135;BME280;5107;48.850;8.924;2023-05-16T05:17:19;96570.22;;;11.60;95.49
10135;BME280;5107;48.850;8.924;2023-05-16T05:19:45;96572.84;;;11.60;94.94
10135;BME280;5107;48.850;8.924;2023-05-16T05:22:10;96580.94;;;11.59;94.67
10135;BME280;5107;48.850;8.924;2023-05-16T05:24:36;96579.13;;;11.59;94.88
10135;BME280;5107;48.850;8.924;2023-05-16T05:27:01;96581.28;;;11.56;94.61
10135;BME280;5107;48.850;8.924;2023-05-16T05:29:27;96587.09;;;11.51;94.93
10135;BME280;5107;48.850;8.924;2023-05-16T05:31:52;96587.19;;;11.58;94.74
10135;BME280;5107;48.850;8.924;2023-05-16T05:34:17;96589.00;;;11.57;95.07
10135;BME280;5107;48.850;8.924;2023-05-16T05:36:43;96583.09;;;11.55;94.97
10135;BME280;5107;48.850;8.924;2023-05-16T05:39:08;96580.09;;;11.58;95.02
10135;BME280;5107;48.850;8.924;2023-05-16T05:41:34;96582.75;;;11.58;94.46
10135;BME280;5107;48.850;8.924;2023-05-16T05:43:59;96590.00;;;11.56;95.13
10135;BME280;5107;48.850;8.924;2023-05-16T05:46:25;96591.13;;;11.62;94.61
10135;BME280;5107;48.850;8.924;2023-05-16T05:48:50;96586.09;;;11.52;94.43
10135;BME280;5107;48.850;8.924;2023-05-16T05:51:16;96592.94;;;11.61;94.42
10135;BME280;5107;48.850;8.924;2023-05-16T05:53:42;96589.31;;;11.62;94.34
10135;BME280;5107;48.850;8.924;2023-05-16T05:56:07;96593.50;;;11.71;95.77
10135;BME280;5107;48.850;8.924;2023-05-16T05:58:33;96591.47;;;11.96;95.65
10135;BME280;5107;48.850;8.924;2023-05-16T06:00:58;96593.19;;;12.04;94.49
10135;BME280;5107;48.850;8.924;2023-05-16T06:03:24;96592.19;;;12.05;93.79
10135;BME280;5107;48.850;8.924;2023-05-16T06:05:49;96596.91;;;12.09;92.62
10135;BME280;5107;48.850;8.924;2023-05-16T06:08:15;96598.25;;;12.05;91.69
10135;BME280;5107;48.850;8.924;2023-05-16T06:10:40;96593.38;;;11.88;91.58
10135;BME280;5107;48.850;8.924;2023-05-16T06:13:05;96588.19;;;11.94;92.33
10135;BME280;5107;48.850;8.924;2023-05-16T06:15:34;96591.03;;;11.70;92.26
10135;BME280;5107;48.850;8.924;2023-05-16T06:17:59;96595.56;;;11.61;92.98
10135;BME280;5107;48.850;8.924;2023-05-16T06:20:24;96603.34;;;11.77;93.39
10135;BME280;5107;48.850;8.924;2023-05-16T06:22:50;96605.63;;;11.81;93.25
10135;BME280;5107;48.850;8.924;2023-05-16T06:25:16;96606.16;;;11.76;92.51
10135;BME280;5107;48.850;8.924;2023-05-16T06:27:41;96613.81;;;11.86;92.76
10135;BME280;5107;48.850;8.924;2023-05-16T06:30:07;96612.19;;;11.99;92.51
10135;BME280;5107;48.850;8.924;2023-05-16T06:32:32;96609.47;;;12.07;92.34
10135;BME280;5107;48.850;8.924;2023-05-16T06:34:58;96613.72;;;11.94;91.47
10135;BME280;5107;48.850;8.924;2023-05-16T06:37:23;96621.34;;;11.89;92.29
10135;BME280;5107;48.850;8.924;2023-05-16T06:39:50;96624.38;;;11.86;91.92
10135;BME280;5107;48.850;8.924;2023-05-16T06:42:15;96621.16;;;11.75;91.74
10135;BME280;5107;48.850;8.924;2023-05-16T06:44:40;96624.09;;;11.58;92.12
10135;BME280;5107;48.850;8.924;2023-05-16T06:47:06;96615.25;;;11.51;93.19
10135;BME280;5107;48.850;8.924;2023-05-16T06:49:32;96617.66;;;11.60;93.01
10135;BME280;5107;48.850;8.924;2023-05-16T06:51:57;96624.63;;;11.53;93.26
10135;BME280;5107;48.850;8.924;2023-05-16T06:54:22;96622.09;;;11.60;93.07
10135;BME280;5107;48.850;8.924;2023-05-16T06:56:50;96623.34;;;11.49;93.21
10135;BME280;5107;48.850;8.924;2023-05-16T06:59:16;96623.34;;;11.49;93.61
10135;BME280;5107;48.850;8.924;2023-05-16T07:01:41;96625.09;;;11.57;93.46
10135;BME280;5107;48.850;8.924;2023-05-16T07:04:06;96623.09;;;11.59;93.47
10135;BME280;5107;48.850;8.924;2023-05-16T07:06:32;96628.72;;;11.56;93.62
10135;BME280;5107;48.850;8.924;2023-05-16T07:08:57;96622.25;;;11.44;93.83
10135;BME280;5107;48.850;8.924;2023-05-16T07:11:22;96629.66;;;11.40;94.56
10135;BME280;5107;48.850;8.924;2023-05-16T07:13:48;96629.16;;;11.45;95.03
10135;BME280;5107;48.850;8.924;2023-05-16T07:16:13;96633.13;;;11.40;94.35
10135;BME280;5107;48.850;8.924;2023-05-16T07:18:39;96636.88;;;11.46;95.02
10135;BME280;5107;48.850;8.924;2023-05-16T07:21:04;96634.03;;;11.48;94.51
10135;BME280;5107;48.850;8.924;2023-05-16T07:23:30;96639.44;;;11.54;94.80
10135;BME280;5107;48.850;8.924;2023-05-16T07:25:55;96641.25;;;11.54;95.15
10135;BME280;5107;48.850;8.924;2023-05-16T07:28:20;96644.34;;;11.57;94.35
10135;BME280;5107;48.850;8.924;2023-05-16T07:30:47;96646.88;;;11.51;94.16
10135;BME280;5107;48.850;8.924;2023-05-16T07:33:12;96650.56;;;11.41;94.31
10135;BME280;5107;48.850;8.924;2023-05-16T07:35:38;96653.84;;;11.44;94.66
10135;BME280;5107;48.850;8.924;2023-05-16T07:38:03;96656.28;;;11.22;95.00
10135;BME280;5107;48.850;8.924;2023-05-16T07:40:31;96655.84;;;11.19;95.22
10135;BME280;5107;48.850;8.924;2023-05-16T07:42:57;96659.81;;;11.15;95.55
10135;BME280;5107;48.850;8.924;2023-05-16T07:45:22;96657.72;;;11.33;98.02
10135;BME280;5107;48.850;8.924;2023-05-16T07:47:48;96659.28;;;11.42;96.95
10135;BME280;5107;48.850;8.924;2023-05-16T07:50:13;96665.91;;;11.84;99.25
10135;BME280;5107;48.850;8.924;2023-05-16T07:52:38;96660.47;;;11.62;93.41
10135;BME280;5107;48.850;8.924;2023-05-16T07:55:04;96664.84;;;11.47;93.20
10135;BME280;5107;48.850;8.924;2023-05-16T07:57:30;96662.91;;;11.41;93.53
10135;BME280;5107;48.850;8.924;2023-05-16T07:59:55;96663.91;;;11.40;93.53
10135;BME280;5107;48.850;8.924;2023-05-16T08:02:22;96670.66;;;11.20;93.92
10135;BME280;5107;48.850;8.924;2023-05-16T08:04:49;96673.19;;;11.36;94.66
10135;BME280;5107;48.850;8.924;2023-05-16T08:07:14;96669.66;;;11.44;94.97
10135;BME280;5107;48.850;8.924;2023-05-16T08:09:40;96672.47;;;11.42;94.74
10135;BME280;5107;48.850;8.924;2023-05-16T08:12:06;96665.38;;;11.43;95.08
10135;BME280;5107;48.850;8.924;2023-05-16T08:14:31;96667.78;;;11.52;96.36
10135;BME280;5107;48.850;8.924;2023-05-16T08:16:58;96662.84;;;11.49;94.95
10135;BME280;5107;48.850;8.924;2023-05-16T08:19:23;96674.91;;;11.66;95.71
10135;BME280;5107;48.850;8.924;2023-05-16T08:21:49;96666.97;;;11.74;94.77
10135;BME280;5107;48.850;8.924;2023-05-16T08:24:14;96674.81;;;11.83;94.35
10135;BME280;5107;48.850;8.924;2023-05-16T08:26:40;96669.25;;;11.77;93.64
10135;BME280;5107;48.850;8.924;2023-05-16T08:29:05;96675.56;;;11.91;94.28
10135;BME280;5107;48.850;8.924;2023-05-16T08:31:31;96672.50;;;12.02;93.67
10135;BME280;5107;48.850;8.924;2023-05-16T08:33:57;96673.66;;;12.00;92.05
10135;BME280;5107;48.850;8.924;2023-05-16T08:36:22;96675.63;;;11.83;92.09
10135;BME280;5107;48.850;8.924;2023-05-16T08:38:49;96668.72;;;11.82;92.51
10135;BME280;5107;48.850;8.924;2023-05-16T08:41:14;96673.09;;;11.90;92.94
10135;BME280;5107;48.850;8.924;2023-05-16T08:43:40;96670.75;;;11.95;92.69
10135;BME280;5107;48.850;8.924;2023-05-16T08:46:06;96674.66;;;11.99;92.49
10135;BME280;5107;48.850;8.924;2023-05-16T08:48:32;96674.09;;;11.89;91.80
10135;BME280;5107;48.850;8.924;2023-05-16T08:50:59;96678.38;;;11.90;92.51
10135;BME280;5107;48.850;8.924;2023-05-16T08:53:30;96681.06;;;12.04;92.90
10135;BME280;5107;48.850;8.924;2023-05-16T08:55:57;96686.69;;;12.16;92.77
10135;BME280;5107;48.850;8.924;2023-05-16T08:58:23;96681.97;;;12.26;92.63
10135;BME280;5107;48.850;8.924;2023-05-16T09:00:49;96683.78;;;12.40;92.79
10135;BME280;5107;48.850;8.924;2023-05-16T09:03:15;96682.28;;;12.46;92.21
10135;BME280;5107;48.850;8.924;2023-05-16T09:05:41;96686.63;;;12.68;91.98
10135;BME280;5107;48.850;8.924;2023-05-16T09:08:06;96687.34;;;12.62;91.64
10135;BME280;5107;48.850;8.924;2023-05-16T09:10:32;96691.63;;;12.48;90.84
10135;BME280;5107;48.850;8.924;2023-05-16T09:12:57;96685.91;;;12.45;90.52
10135;BME280;5107;48.850;8.924;2023-05-16T09:15:22;96692.19;;;12.44;91.54
10135;BME280;5107;48.850;8.924;2023-05-16T09:17:48;96688.06;;;12.27;92.03
10135;BME280;5107;48.850;8.924;2023-05-16T09:20:18;96685.03;;;12.15;92.57
10135;BME280;5107;48.850;8.924;2023-05-16T09:23:02;96696.00;;;12.27;93.06
10135;BME280;5107;48.850;8.924;2023-05-16T09:25:29;96697.81;;;12.26;92.38
10135;BME280;5107;48.850;8.924;2023-05-16T09:27:56;96695.09;;;12.34;91.92
10135;BME280;5107;48.850;8.924;2023-05-16T09:30:27;96699.63;;;12.40;92.29
10135;BME280;5107;48.850;8.924;2023-05-16T09:32:52;96694.44;;;12.47;91.46
10135;BME280;5107;48.850;8.924;2023-05-16T09:35:21;96700.09;;;12.29;90.91
10135;BME280;5107;48.850;8.924;2023-05-16T09:37:48;96694.25;;;12.34;91.78
10135;BME280;5107;48.850;8.924;2023-05-16T09:40:15;96693.66;;;12.46;91.88
10135;BME280;5107;48.850;8.924;2023-05-16T09:42:41;96692.63;;;12.33;91.36
10135;BME280;5107;48.850;8.924;2023-05-16T09:45:11;96701.44;;;12.25;91.77
10135;BME280;5107;48.850;8.924;2023-05-16T09:47:37;96696.16;;;12.25;91.77
10135;BME280;5107;48.850;8.924;2023-05-16T09:50:10;96693.69;;;12.24;91.50
10135;BME280;5107;48.850;8.924;2023-05-16T09:52:36;96686.81;;;12.37;91.33
10135;BME280;5107;48.850;8.924;2023-05-16T09:55:02;96691.53;;;12.42;91.44
10135;BME280;5107;48.850;8.924;2023-05-16T09:57:30;96688.97;;;12.48;90.13
10135;BME280;5107;48.850;8.924;2023-05-16T10:00:22;96696.53;;;12.66;90.35
10135;BME280;5107;48.850;8.924;2023-05-16T10:02:56;96692.63;;;12.77;90.19
10135;BME280;5107;48.850;8.924;2023-05-16T10:05:23;96702.94;;;12.72;89.09
10135;BME280;5107;48.850;8.924;2023-05-16T10:07:54;96705.94;;;12.54;89.37
10135;BME280;5107;48.850;8.924;2023-05-16T10:10:40;96704.28;;;12.38;90.66
10135;BME280;5107;48.850;8.924;2023-05-16T10:15:55;96692.63;;;12.47;90.86
10135;BME280;5107;48.850;8.924;2023-05-16T10:18:28;96686.34;;;12.48;89.68
10135;BME280;5107;48.850;8.924;2023-05-16T10:20:59;96692.44;;;12.64;89.59
10135;BME280;5107;48.850;8.924;2023-05-16T10:26:19;96700.84;;;12.38;89.23
10135;BME280;5107;48.850;8.924;2023-05-16T10:29:08;96701.19;;;12.49;90.02
10135;BME280;5107;48.850;8.924;2023-05-16T10:31:42;96699.66;;;12.55;89.78
10135;BME280;5107;48.850;8.924;2023-05-16T10:34:19;96698.91;;;12.61;89.00
10135;BME280;5107;48.850;8.924;2023-05-16T10:36:50;96693.16;;;12.72;88.61
10135;BME280;5107;48.850;8.924;2023-05-16T10:39:19;96706.09;;;12.82;88.20
10135;BME280;5107;48.850;8.924;2023-05-16T10:41:50;96702.97;;;12.93;88.39
10135;BME280;5107;48.850;8.924;2023-05-16T10:44:21;96708.00;;;12.88;87.16
10135;BME280;5107;48.850;8.924;2023-05-16T10:46:52;96705.81;;;12.77;87.04
10135;BME280;5107;48.850;8.924;2023-05-16T10:49:20;96707.56;;;12.70;87.48
10135;BME280;5107;48.850;8.924;2023-05-16T10:52:02;96703.63;;;12.66;87.07
10135;BME280;5107;48.850;8.924;2023-05-16T10:54:39;96708.63;;;12.16;87.84
10135;BME280;5107;48.850;8.924;2023-05-16T10:57:26;96715.88;;;12.14;89.40
10135;BME280;5107;48.850;8.924;2023-05-16T11:00:03;96707.50;;;11.96;88.96
10135;BME280;5107;48.850;8.924;2023-05-16T11:02:40;96715.66;;;11.87;89.66
10135;BME280;5107;48.850;8.924;2023-05-16T11:05:21;96704.47;;;11.85;89.71
10135;BME280;5107;48.850;8.924;2023-05-16T11:08:02;96715.59;;;11.95;89.53
10135;BME280;5107;48.850;8.924;2023-05-16T11:10:28;96714.06;;;12.15;90.16
10135;BME280;5107;48.850;8.924;2023-05-16T11:13:01;96717.09;;;12.41;89.58
10135;BME280;5107;48.850;8.924;2023-05-16T11:15:38;96721.84;;;12.46;88.24
10135;BME280;5107;48.850;8.924;2023-05-16T11:18:08;96717.84;;;12.35;88.52
10135;BME280;5107;48.850;8.924;2023-05-16T11:20:51;96728.91;;;12.31;88.71
10135;BME280;5107;48.850;8.924;2023-05-16T11:23:36;96722.72;;;12.24;87.95
10135;BME280;5107;48.850;8.924;2023-05-16T11:26:07;96735.31;;;12.36;88.54
10135;BME280;5107;48.850;8.924;2023-05-16T11:28:32;96735.59;;;12.56;87.54
10135;BME280;5107;48.850;8.924;2023-05-16T11:31:00;96732.03;;;12.64;86.29
10135;BME280;5107;48.850;8.924;2023-05-16T11:33:34;96730.69;;;12.68;85.38
10135;BME280;5107;48.850;8.924;2023-05-16T11:36:08;96731.22;;;12.78;85.35
10135;BME280;5107;48.850;8.924;2023-05-16T11:38:34;96731.88;;;12.80;84.42
10135;BME280;5107;48.850;8.924;2023-05-16T11:41:08;96732.66;;;12.80;85.62
10135;BME280;5107;48.850;8.924;2023-05-16T11:43:44;96734.50;;;12.80;84.82
10135;BME280;5107;48.850;8.924;2023-05-16T11:46:28;96739.69;;;12.88;84.84
10135;BME280;5107;48.850;8.924;2023-05-16T11:48:56;96745.34;;;12.85;83.91
10135;BME280;5107;48.850;8.924;2023-05-16T11:51:26;96738.06;;;12.87;84.10
10135;BME280;5107;48.850;8.924;2023-05-16T11:54:00;96741.41;;;12.96;84.15
10135;BME280;5107;48.850;8.924;2023-05-16T11:56:41;96743.50;;;13.00;82.51
10135;BME280;5107;48.850;8.924;2023-05-16T11:59:27;96750.78;;;12.98;82.44
10135;BME280;5107;48.850;8.924;2023-05-16T12:01:52;96745.34;;;12.85;81.62
10135;BME280;5107;48.850;8.924;2023-05-16T12:04:29;96748.97;;;12.99;82.19
10135;BME280;5107;48.850;8.924;2023-05-16T12:07:07;96751.53;;;12.92;82.19
10135;BME280;5107;48.850;8.924;2023-05-16T12:09:53;96742.97;;;12.75;81.27
10135;BME280;5107;48.850;8.924;2023-05-16T12:12:24;96759.63;;;12.61;82.25
10135;BME280;5107;48.850;8.924;2023-05-16T12:15:05;96755.44;;;12.37;83.12
10135;BME280;5107;48.850;8.924;2023-05-16T12:17:49;96761.69;;;11.99;83.26
10135;BME280;5107;48.850;8.924;2023-05-16T12:20:17;96765.03;;;11.93;84.75
10135;BME280;5107;48.850;8.924;2023-05-16T12:22:51;96771.84;;;11.87;85.21
10135;BME280;5107;48.850;8.924;2023-05-16T12:28:01;96771.91;;;11.79;84.51
10135;BME280;5107;48.850;8.924;2023-05-16T12:30:28;96775.50;;;11.47;83.40
10135;BME280;5107;48.850;8.924;2023-05-16T12:33:29;96781.66;;;11.39;84.89
10135;BME280;5107;48.850;8.924;2023-05-16T12:36:00;96785.75;;;11.42;85.08
10135;BME280;5107;48.850;8.924;2023-05-16T12:38:29;96788.00;;;11.53;85.62
10135;BME280;5107;48.850;8.924;2023-05-16T12:41:09;96797.91;;;11.51;85.09
10135;BME280;5107;48.850;8.924;2023-05-16T12:43:39;96796.00;;;11.37;84.61
10135;BME280;5107;48.850;8.924;2023-05-16T12:46:09;96807.03;;;11.32;84.26
10135;BME280;5107;48.850;8.924;2023-05-16T12:48:36;96799.50;;;11.29;83.38
10135;BME280;5107;48.850;8.924;2023-05-16T12:51:10;96803.47;;;11.25;83.17
10135;BME280;5107;48.850;8.924;2023-05-16T12:53:43;96799.25;;;11.08;82.68
10135;BME280;5107;48.850;8.924;2023-05-16T12:56:11;96801.88;;;11.08;83.30
10135;BME280;5107;48.850;8.924;2023-05-16T12:58:38;96792.47;;;11.14;84.18
10135;BME280;5107;48.850;8.924;2023-05-16T13:01:04;96801.72;;;11.10;82.91
10135;BME280;5107;48.850;8.924;2023-05-16T13:03:30;96791.97;;;11.18;82.26
10135;BME280;5107;48.850;8.924;2023-05-16T13:05:57;96801.41;;;11.05;81.65
10135;BME280;5107;48.850;8.924;2023-05-16T13:08:22;96790.88;;;11.05;82.40
10135;BME280;5107;48.850;8.924;2023-05-16T13:10:47;96797.75;;;11.14;82.54
10135;BME280;5107;48.850;8.924;2023-05-16T13:13:13;96798.53;;;11.22;81.63
10135;BME280;5107;48.850;8.924;2023-05-16T13:15:39;96793.88;;;11.32;81.48
10135;BME280;5107;48.850;8.924;2023-05-16T13:18:06;96796.41;;;11.49;82.42
10135;BME280;5107;48.850;8.924;2023-05-16T13:20:31;96798.13;;;11.64;81.62
10135;BME280;5107;48.850;8.924;2023-05-16T13:22:57;96804.81;;;11.83;81.59
10135;BME280;5107;48.850;8.924;2023-05-16T13:25:22;96805.59;;;11.92;81.43
10135;BME280;5107;48.850;8.924;2023-05-16T13:27:48;96801.25;;;11.99;80.14